Latest Weather Observations for Blackall

IDQ60801

Issued at 2:02 pm EST Saturday 18 November 2017 (issued every 30 minutes, with the page automatically refreshed every 10 minutes)

About weather observations | Map of weather stations | Latest weather observations for QLD | Other Formats
Station Details ID: 036034 Name: BLACKALL AIRPORT Lat: -24.43 Lon: 145.43 Height: 281.3 m
Data from the previous 72 hours. | See also: Recent months at Blackall
Date/Time
EST
Temp
°C
App
Temp
°C
Dew
Point
°C
Rel
Hum
%
Delta-T
°C
Wind Press
QNH
hPa
Press
MSL
hPa
Rain since
9am
mm
Dir  Spd
km/h
Gust
km/h
Spd
kts
Gust
kts
18/02:00pm 32.1 29.3 11.3 28 12.3 NE 17 33 9 18 1009.4 1007.6 0.0
18/01:30pm 31.6 29.7 12.9 32 11.3 NNE 15 32 8 17 1010.1 1008.3 0.0
18/01:00pm 31.1 29.1 13.8 34 10.6 N 17 37 9 20 1010.7 1008.8 0.0
18/12:30pm 31.3 29.1 14.4 35 10.4 N 19 32 10 17 1011.4 1009.6 0.0
18/12:00pm 29.8 26.9 14.0 38 9.6 N 22 33 12 18 1011.8 1010.0 0.0
18/11:30am 29.8 27.1 14.7 39 9.3 N 22 32 12 17 1012.1 1010.3 0.0
18/11:00am 28.5 25.7 15.4 45 8.1 N 24 37 13 20 1012.5 1010.7 0.0
18/10:30am 27.7 24.8 15.0 45 7.8 NNE 24 39 13 21 1012.6 1010.8 0.0
18/10:00am 26.9 24.2 15.6 50 7.0 NNE 24 39 13 21 1012.9 1011.1 0.0
18/09:30am 25.7 22.6 15.7 54 6.2 NNE 26 37 14 20 1012.9 1011.1 0.0
18/09:00am 25.7 22.4 16.0 55 6.0 NNE 28 41 15 22 1013.1 1011.3 0.2
18/08:30am 24.8 21.0 15.7 57 5.6 NE 30 41 16 22 1013.2 1011.4 0.2
18/08:00am 24.1 20.2 15.6 59 5.2 NE 30 39 16 21 1013.3 1011.5 0.2
18/07:30am 23.4 19.4 15.2 60 5.0 NE 30 43 16 23 1013.1 1011.3 0.2
18/07:00am 21.7 18.3 14.8 65 4.1 NE 26 37 14 20 1012.9 1011.1 0.2
18/06:30am 20.8 18.7 14.7 68 3.6 ENE 19 26 10 14 1012.7 1010.9 0.2
18/06:00am 19.9 17.8 14.7 72 3.1 ENE 19 26 10 14 1012.5 1010.7 0.2
18/05:30am 19.1 18.0 15.2 78 2.3 ENE 15 19 8 10 1012.0 1010.2 0.2
18/05:00am 18.9 18.3 15.6 81 2.0 ENE 13 17 7 9 1011.7 1009.9 0.2
18/04:30am 19.1 18.6 15.8 81 2.0 ENE 13 15 7 8 1011.3 1009.5 0.2
18/04:00am 19.3 19.3 16.2 82 1.9 ENE 11 13 6 7 1011.3 1009.5 0.2
18/03:30am 19.5 19.5 16.3 82 1.9 ENE 11 17 6 9 1011.2 1009.4 0.2
18/03:00am 19.5 19.5 16.3 82 1.9 ENE 11 13 6 7 1011.2 1009.4 0.2
18/02:30am 19.3 19.7 16.2 82 1.9 ENE 9 11 5 6 1011.4 1009.6 0.2
18/02:00am 19.3 20.6 16.2 82 1.9 E 4 9 2 5 1011.7 1009.9 0.2
18/01:30am 19.8 20.2 16.4 81 2.1 E 9 11 5 6 1011.7 1009.9 0.2
18/01:00am 20.2 21.1 16.6 80 2.2 ENE 7 9 4 5 1012.0 1010.2 0.2
18/12:30am 20.3 21.1 16.3 78 2.4 E 7 11 4 6 1012.0 1010.2 0.2
18/12:00am 20.8 21.2 16.4 76 2.7 E 9 13 5 7 1012.2 1010.4 0.2
 
Date/Time
EST
Temp
°C
App
Temp
°C
Dew
Point
°C
Rel
Hum
%
Delta-T
°C
Wind Press
QNH
hPa
Press
MSL
hPa
Rain since
9am
mm
Dir  Spd
km/h
Gust
km/h
Spd
kts
Gust
kts
17/11:30pm 21.3 21.4 16.5 74 2.9 ENE 11 13 6 7 1012.2 1010.4 0.2
17/11:00pm 21.6 21.6 16.3 72 3.2 ENE 11 13 6 7 1012.1 1010.3 0.2
17/10:30pm 22.3 21.6 16.3 69 3.7 E 15 17 8 9 1012.2 1010.4 0.2
17/10:00pm 23.0 22.3 16.3 66 4.1 ENE 15 19 8 10 1012.1 1010.3 0.2
17/09:30pm 22.8 21.8 16.6 68 3.8 NNE 17 22 9 12 1011.6 1009.8 0.2
17/09:00pm 22.9 21.9 16.7 68 3.8 NNE 17 22 9 12 1011.5 1009.7 0.2
17/08:30pm 22.9 22.8 16.9 69 3.7 NNE 13 19 7 10 1011.4 1009.6 0.2
17/08:00pm 22.7 21.3 16.9 70 3.6 NNE 20 32 11 17 1011.0 1009.2 0.2
17/07:30pm 23.0 19.0 16.3 66 4.1 NNE 32 52 17 28 1010.6 1008.7 0.2
17/07:23pm 23.9 19.9 16.7 64 4.5 NNE 33 52 18 28 1010.5 1008.6 0.2
17/07:13pm 25.3 21.6 15.9 56 5.8 NNE 30 46 16 25 1010.1 1008.3 0.2
17/07:00pm 25.7 24.0 16.3 56 5.8 NE 20 28 11 15 1010.0 1008.2 0.2
17/06:30pm 26.5 24.0 15.2 49 6.9 NE 22 30 12 16 1009.2 1007.4 0.2
17/06:00pm 27.7 24.3 14.7 45 7.9 ENE 26 35 14 19 1008.9 1007.1 0.2
17/05:30pm 28.5 26.5 15.4 45 8.1 NE 20 30 11 16 1008.7 1006.9 0.2
17/05:00pm 28.8 25.7 14.6 42 8.7 NE 24 33 13 18 1008.5 1006.7 0.2
17/04:30pm 30.8 27.4 13.6 35 10.4 NE 24 32 13 17 1008.3 1006.5 0.2
17/04:00pm 28.8 26.0 16.4 47 7.8 NE 26 37 14 20 1008.2 1006.4 0.2
17/03:30pm 30.1 26.5 14.2 38 9.7 ENE 26 35 14 19 1008.2 1006.4 0.2
17/03:00pm 31.7 29.1 14.8 36 10.5 NE 22 33 12 18 1008.4 1006.6 0.2
17/02:30pm 28.4 27.1 17.3 51 7.1 NNE 20 32 11 17 1009.2 1007.4 0.2
17/02:00pm 31.6 27.0 14.7 36 10.5 N 32 59 17 32 1009.5 1007.7 0.0
17/01:58pm 33.8 29.9 14.3 31 12.1 N 28 48 15 26 1009.6 1007.8 0.0
17/01:30pm 34.2 30.0 13.6 29 12.7 N 28 39 15 21 1010.2 1008.4 0.0
17/01:00pm 33.0 29.6 13.6 31 11.9 N 24 41 13 22 1011.1 1009.3 0.0
17/12:30pm 33.5 30.6 14.0 30 12.0 N 22 43 12 23 1011.7 1009.9 0.0
17/12:00pm 32.8 29.1 13.9 31 11.6 NNE 26 43 14 23 1012.2 1010.4 0.0
17/11:30am 32.5 29.0 14.6 34 11.1 N 26 35 14 19 1012.8 1011.0 0.0
17/11:02am 30.2 26.1 13.9 37 9.9 N 28 46 15 25 1013.2 1011.4 0.0
17/11:00am 31.5 27.7 14.6 36 10.4 N 28 44 15 24 1013.3 1011.5 0.0
17/10:30am 30.1 26.5 14.2 38 9.7 NNE 26 37 14 20 1013.6 1011.8 0.0
17/10:00am 28.7 25.1 14.1 40 8.9 NNE 26 37 14 20 1013.9 1012.1 0.0
17/09:30am 27.9 23.8 13.8 42 8.5 NNE 28 39 15 21 1014.2 1012.4 0.0
17/09:00am 27.3 24.0 14.0 44 8.0 NNE 24 35 13 19 1014.3 1012.5 0.4
17/08:30am 26.1 21.7 14.2 48 7.2 NNE 30 44 16 24 1014.3 1012.5 0.4
17/08:00am 25.1 21.4 13.9 49 6.7 NNE 26 37 14 20 1014.0 1012.3 0.4
17/07:30am 24.7 21.5 14.2 52 6.3 NNE 24 32 13 17 1013.8 1012.0 0.4
17/07:00am 24.4 21.2 14.2 53 6.1 NE 24 33 13 18 1013.6 1011.8 0.4
17/06:30am 23.2 21.2 13.9 56 5.5 NE 17 26 9 14 1013.2 1011.4 0.4
17/06:00am 22.7 21.0 13.7 56 5.3 NE 15 20 8 11 1012.8 1011.0 0.4
17/05:30am 22.3 21.0 13.6 58 5.1 NE 13 20 7 11 1012.5 1010.7 0.4
17/05:00am 22.5 21.0 14.1 59 5.0 NE 15 20 8 11 1012.1 1010.3 0.4
17/04:30am 22.8 21.0 14.4 59 5.0 NNE 17 24 9 13 1012.0 1010.2 0.4
17/04:00am 22.6 21.0 15.0 62 4.6 NE 17 24 9 13 1011.7 1009.9 0.4
17/03:30am 22.7 20.6 15.3 63 4.5 NE 20 28 11 15 1011.3 1009.5 0.4
17/03:00am 22.7 21.3 15.5 64 4.4 NE 17 22 9 12 1011.3 1009.5 0.4
17/02:30am 23.0 21.5 15.3 62 4.7 NE 17 22 9 12 1011.3 1009.5 0.4
17/02:00am 23.7 21.9 15.5 60 5.0 NE 19 24 10 13 1011.4 1009.6 0.4
17/01:30am 23.6 21.8 15.6 61 4.9 NE 19 24 10 13 1011.4 1009.6 0.4
17/01:00am 23.3 22.1 16.1 64 4.4 NNE 17 26 9 14 1011.7 1009.9 0.4
17/12:30am 23.9 22.3 15.9 61 4.9 N 19 26 10 14 1012.1 1010.3 0.4
17/12:00am 24.3 23.0 15.8 59 5.2 NNE 17 24 9 13 1012.6 1010.8 0.4
 
Date/Time
EST
Temp
°C
App
Temp
°C
Dew
Point
°C
Rel
Hum
%
Delta-T
°C
Wind Press
QNH
hPa
Press
MSL
hPa
Rain since
9am
mm
Dir  Spd
km/h
Gust
km/h
Spd
kts
Gust
kts
16/11:30pm 23.8 23.8 16.3 63 4.6 NNE 11 19 6 10 1012.1 1010.3 0.4
16/11:00pm 23.7 22.7 16.7 65 4.3 NE 17 28 9 15 1011.9 1010.1 0.4
16/10:30pm 23.4 22.8 16.7 66 4.2 ENE 15 20 8 11 1011.9 1010.1 0.4
16/10:00pm 23.3 23.1 16.6 66 4.1 ESE 13 20 7 11 1011.9 1010.1 0.4
16/09:30pm 23.1 22.5 16.6 67 4.0 E 15 19 8 10 1011.7 1009.9 0.4
16/09:00pm 24.2 22.5 16.2 61 4.9 E 20 30 11 16 1011.5 1009.7 0.4
16/08:30pm 24.8 23.1 15.7 57 5.6 ENE 19 26 10 14 1011.1 1009.3 0.4
16/08:00pm 24.9 23.0 15.2 54 5.9 ENE 19 24 10 13 1010.8 1008.9 0.4
16/07:30pm 24.8 22.5 14.6 53 6.1 NE 20 28 11 15 1010.7 1008.8 0.4
16/07:00pm 25.5 23.5 14.9 52 6.4 NE 19 26 10 14 1010.3 1008.5 0.4
16/06:30pm 26.8 24.3 14.2 46 7.6 ENE 20 28 11 15 1009.9 1008.1 0.4
16/06:00pm 27.1 24.1 14.8 47 7.5 ENE 24 32 13 17 1009.9 1008.1 0.4
16/05:30pm 27.3 23.3 15.3 48 7.4 ENE 30 39 16 21 1009.7 1007.9 0.4
16/05:00pm 29.0 26.1 16.2 46 8.0 E 26 37 14 20 1009.5 1007.7 0.4
16/04:48pm 29.3 27.0 15.8 44 8.4 ESE 22 35 12 19 1009.5 1007.7 0.4
16/04:30pm 24.3 23.0 16.8 63 4.7 SSE 19 33 10 18 1009.8 1008.0 0.4
16/04:15pm 27.2 21.7 13.5 42 8.2 SSW 35 54 19 29 1009.8 1008.0 0.0
16/04:08pm 27.8 24.8 14.8 45 8.0 WSW 24 46 13 25 1009.7 1007.9 0.0
16/04:06pm 28.8 26.7 15.3 43 8.4 W 20 44 11 24 1009.8 1008.0 0.0
16/04:00pm 32.9 31.2 12.5 29 12.3 NW 13 19 7 10 1009.3 1007.5 0.0
16/03:30pm 33.1 33.2 12.7 29 12.3 ESE 4 11 2 6 1009.1 1007.3 0.0
16/03:00pm 33.2 32.0 11.7 27 12.8 NW 9 17 5 9 1009.7 1007.9 0.0
16/02:30pm 34.0 32.3 12.4 27 13.0 NNW 13 22 7 12 1009.9 1008.1 0.0
16/02:00pm 34.7 33.7 12.4 26 13.5 WNW 9 22 5 12 1010.5 1008.6 0.0
16/01:30pm 32.1 32.4 12.3 29 11.8 SSW 2 9 1 5 1011.2 1009.4 0.0
16/01:00pm 32.5 31.6 12.7 30 11.9 NNW 9 24 5 13 1011.5 1009.7 0.0
16/12:30pm 33.5 32.4 13.0 29 12.5 NW 11 28 6 15 1011.9 1010.1 0.0
16/12:00pm 32.3 31.3 13.5 32 11.5 WNW 11 26 6 14 1012.4 1010.6 0.0
16/11:30am 31.0 29.7 13.7 34 10.5 NW 13 26 7 14 1013.0 1011.2 0.0
16/11:00am 30.6 28.9 14.7 38 9.8 NNW 17 26 9 14 1013.6 1011.8 0.0
16/10:30am 29.4 27.4 14.0 39 9.4 N 17 28 9 15 1014.2 1012.4 0.0
16/10:00am 29.3 26.8 15.1 42 8.8 N 22 32 12 17 1014.6 1012.8 0.0
16/09:30am 27.8 25.7 15.1 46 7.8 N 20 33 11 18 1014.8 1013.0 0.0
16/09:00am 27.2 24.5 14.6 46 7.7 N 22 35 12 19 1015.0 1013.2 0.0
16/08:30am 26.1 22.6 14.6 49 7.0 N 26 33 14 18 1015.2 1013.4 0.0
16/08:00am 25.9 22.6 14.1 48 7.1 NNE 24 30 13 16 1015.0 1013.2 0.0
16/07:30am 24.1 21.0 13.3 51 6.4 NNE 22 32 12 17 1015.0 1013.2 0.0
16/07:00am 23.1 21.2 13.0 53 5.9 NNE 15 20 8 11 1014.8 1013.0 0.0
16/06:30am 22.8 20.5 13.0 54 5.7 NNE 17 24 9 13 1014.4 1012.6 0.0
16/06:00am 22.7 20.0 12.9 54 5.7 NNE 19 28 10 15 1013.6 1011.8 0.0
16/05:30am 21.4 20.1 13.8 62 4.5 NE 13 20 7 11 1013.2 1011.4 0.0
16/05:00am 19.5 18.5 12.3 63 4.1 NE 9 13 5 7 1012.9 1011.1 0.0
16/04:30am 20.3 18.6 12.5 61 4.4 NE 13 17 7 9 1012.4 1010.6 0.0
16/04:00am 20.1 18.4 12.6 62 4.3 NE 13 15 7 8 1012.3 1010.5 0.0
16/03:30am 19.2 18.3 12.7 66 3.7 E 9 13 5 7 1012.2 1010.4 0.0
16/03:00am 18.9 18.5 12.4 66 3.7 E 6 9 3 5 1012.2 1010.4 0.0
16/02:30am 19.1 19.8 12.1 64 3.9 CALM 0 0 0 0 1012.1 1010.3 0.0
16/02:00am 19.7 19.9 12.0 61 4.3 ENE 2 6 1 3 1012.3 1010.5 0.0
16/01:30am 20.5 20.0 12.5 60 4.6 ENE 7 9 4 5 1012.4 1010.6 0.0
16/01:00am 20.6 19.7 12.6 60 4.6 E 9 11 5 6 1012.6 1010.8 0.0
16/12:30am 20.6 19.4 12.8 61 4.5 E 11 13 6 7 1013.1 1011.3 0.0
16/12:00am 20.1 19.6 12.8 63 4.2 ESE 7 9 4 5 1013.4 1011.6 0.0
 
Date/Time
EST
Temp
°C
App
Temp
°C
Dew
Point
°C
Rel
Hum
%
Delta-T
°C
Wind Press
QNH
hPa
Press
MSL
hPa
Rain since
9am
mm
Dir  Spd
km/h
Gust
km/h
Spd
kts
Gust
kts
15/11:30pm 20.7 20.4 13.2 62 4.3 ESE 7 9 4 5 1013.8 1012.0 0.0
15/11:00pm 21.1 20.7 13.0 60 4.7 ENE 7 9 4 5 1014.2 1012.4 0.0
15/10:30pm 22.0 21.9 13.4 58 5.0 ENE 6 7 3 4 1014.2 1012.4 0.0
15/10:00pm 22.6 22.1 13.7 57 5.2 ENE 9 13 5 7 1014.2 1012.4 0.0
15/09:30pm 22.9 21.9 13.4 55 5.6 ENE 11 13 6 7 1013.9 1012.1 0.0
15/09:00pm 23.9 23.0 13.7 53 6.0 ENE 11 15 6 8 1014.0 1012.3 0.0
15/08:30pm 24.5 23.2 13.7 51 6.4 ENE 13 17 7 9 1014.2 1012.4 0.0
15/08:00pm 25.0 24.3 14.2 51 6.5 E 11 15 6 8 1014.0 1012.3 0.0
15/07:30pm 25.1 24.2 13.6 49 6.8 NE 11 13 6 7 1013.7 1011.9 0.0
15/07:00pm 25.5 24.6 13.7 48 7.0 ENE 11 17 6 9 1013.7 1011.9 0.0
15/06:30pm 25.6 24.6 13.5 47 7.2 NE 11 13 6 7 1013.7 1011.9 0.0
15/06:00pm 26.0 24.5 13.2 45 7.6 NNE 13 19 7 10 1013.5 1011.7 0.0
15/05:30pm 26.0 23.9 13.5 46 7.4 N 17 22 9 12 1013.5 1011.7 0.0
15/05:00pm 26.5 24.4 13.6 45 7.7 N 17 24 9 13 1013.2 1011.4 0.0
15/04:30pm 27.0 25.3 14.7 47 7.5 NNE 17 22 9 12 1013.1 1011.3 0.0
15/04:00pm 26.8 25.2 14.9 48 7.3 NNE 17 28 9 15 1013.1 1011.3 0.0
15/03:30pm 27.2 24.9 14.2 44 7.9 NNE 19 26 10 14 1013.1 1011.3 0.0
15/03:00pm 26.8 24.6 14.5 46 7.5 N 19 26 10 14 1013.4 1011.6 0.0
15/02:30pm 26.0 24.6 14.5 49 7.0 N 15 20 8 11 1013.9 1012.1 0.0

Other Formats:

Comma delimited format used in spreadsheet applications
http://www.bom.gov.au/fwo/IDQ60801/IDQ60801.95351.axf

JavaScript Object Notation format (JSON) in row-major order
http://www.bom.gov.au/fwo/IDQ60801/IDQ60801.95351.json